Time;durP1;ratioP1;P1;durP2;ratioP2;P2;SDS_P1;SDS_P2;PMS_P1;PMS_P2;Temp;Humidity;BMP_temperature;BMP_pressure;BME280_temperature;BME280_humidity;BME280_pressure;Samples;Min_cycle;Max_cycle;Signal;HPM_P1;HPM_P2
2024/04/22 00:02:25;;;;;;;;;6.50;5.75;;;;;8.95;52.04;102337.03;5313658;26;66058;-71
2024/04/22 00:04:50;;;;;;;;;7.00;6.00;;;;;8.91;52.07;102335.63;5277703;26;73080;-70
2024/04/22 00:07:16;;;;;;;;;26.00;19.00;;;;;8.88;52.33;102328.78;5259947;27;44006;-70
2024/04/22 00:09:44;;;;;;;;;10.00;10.00;;;;;8.86;52.47;102327.28;5216962;27;44015;-70
2024/04/22 00:12:10;;;;;;;;;12.00;7.00;;;;;8.77;52.47;102325.44;5251147;27;44202;-70
2024/04/22 00:14:35;;;;;;;;;11.50;10.00;;;;;8.80;52.47;102331.28;5242780;27;67990;-70
2024/04/22 00:17:01;;;;;;;;;6.00;5.75;;;;;8.79;52.61;102326.13;5246311;27;66547;-70
2024/04/22 00:19:27;;;;;;;;;6.50;6.00;;;;;8.77;52.36;102328.06;5243477;27;44108;-70
2024/04/22 00:21:52;;;;;;;;;7.25;6.00;;;;;8.76;52.61;102329.88;5210950;27;66319;-70
2024/04/22 00:24:18;;;;;;;;;8.00;7.00;;;;;8.74;52.76;102321.22;5246147;27;67968;-70
2024/04/22 00:26:43;;;;;;;;;8.25;8.25;;;;;8.73;52.79;102327.50;5246334;27;44027;-70
2024/04/22 00:29:08;;;;;;;;;6.75;6.75;;;;;8.73;52.89;102338.91;5244309;26;62975;-70
2024/04/22 00:31:34;;;;;;;;;8.00;7.00;;;;;8.72;52.80;102336.38;5244049;27;67409;-71
2024/04/22 00:33:59;;;;;;;;;11.00;9.50;;;;;8.71;53.21;102329.44;5248490;27;44744;-71
2024/04/22 00:36:24;;;;;;;;;6.50;6.50;;;;;8.65;53.45;102322.84;5249240;27;68055;-72
2024/04/22 00:38:50;;;;;;;;;8.50;6.75;;;;;8.64;53.29;102329.09;5264395;26;65230;-71
2024/04/22 00:41:15;;;;;;;;;9.50;7.25;;;;;8.63;53.22;102329.25;5231851;27;44014;-71
2024/04/22 00:43:41;;;;;;;;;16.75;12.00;;;;;8.60;53.03;102325.91;5246246;27;67235;-71
2024/04/22 00:46:06;;;;;;;;;9.25;7.00;;;;;8.58;53.57;102321.72;5248824;27;51307;-79
2024/04/22 00:48:32;;;;;;;;;7.00;6.00;;;;;8.56;53.77;102324.50;5245871;27;44183;-71
2024/04/22 00:50:57;;;;;;;;;8.50;8.00;;;;;8.58;53.54;102327.00;5242874;27;45535;-70
2024/04/22 00:53:23;;;;;;;;;7.00;7.00;;;;;8.56;53.70;102323.66;5223375;27;45742;-70
2024/04/22 00:55:48;;;;;;;;;11.50;9.25;;;;;8.54;53.42;102329.09;5217906;27;44261;-70
2024/04/22 00:58:13;;;;;;;;;9.75;8.25;;;;;8.47;53.45;102322.63;5246914;27;62930;-76
2024/04/22 01:00:39;;;;;;;;;8.50;8.25;;;;;8.50;53.24;102322.38;5223304;27;64575;-71
2024/04/22 01:03:06;;;;;;;;;10.75;9.25;;;;;8.49;53.39;102326.00;5245938;26;44704;-71
2024/04/22 01:05:33;;;;;;;;;15.25;9.75;;;;;8.46;53.45;102319.13;5235555;27;44526;-71
2024/04/22 01:07:59;;;;;;;;;8.00;6.50;;;;;8.46;53.81;102319.13;5215227;27;44206;-71
2024/04/22 01:10:26;;;;;;;;;14.50;7.75;;;;;8.43;53.79;102322.03;5242154;27;44030;-71
2024/04/22 01:12:52;;;;;;;;;12.25;9.50;;;;;8.44;53.80;102328.16;5243121;27;44230;-70
2024/04/22 01:15:17;;;;;;;;;7.00;7.00;;;;;8.40;53.75;102319.66;5245462;27;44054;-70
2024/04/22 01:17:47;;;;;;;;;7.25;7.25;;;;;8.40;54.31;102332.03;5214973;27;44852;-71
2024/04/22 01:20:13;;;;;;;;;11.00;7.50;;;;;8.38;54.32;102328.69;5247672;27;44380;-71
2024/04/22 01:22:39;;;;;;;;;11.25;8.50;;;;;8.38;54.04;102324.22;5234199;27;44773;-71
2024/04/22 01:25:05;;;;;;;;;8.50;6.00;;;;;8.35;54.07;102316.56;5216032;27;54747;-71
2024/04/22 01:27:31;;;;;;;;;10.75;8.00;;;;;8.35;54.24;102319.22;5247119;27;44139;-71
2024/04/22 01:30:00;;;;;;;;;10.75;8.50;;;;;8.34;54.26;102324.63;5245835;27;44001;-71
2024/04/22 01:32:25;;;;;;;;;7.25;7.25;;;;;8.32;54.69;102316.81;5248947;27;45954;-71
2024/04/22 01:34:55;;;;;;;;;10.75;8.00;;;;;8.30;53.93;102318.75;5241103;27;44022;-71
2024/04/22 01:37:20;;;;;;;;;17.00;10.25;;;;;8.31;54.10;102312.50;5247400;27;44052;-72
2024/04/22 01:39:45;;;;;;;;;9.50;8.50;;;;;8.27;54.53;102311.09;5241780;26;67404;-71
2024/04/22 01:42:11;;;;;;;;;11.50;10.00;;;;;8.24;54.07;102314.81;5215478;27;69786;-71
2024/04/22 01:44:36;;;;;;;;;7.50;7.00;;;;;8.25;54.36;102320.97;5246508;27;67762;-71
2024/04/22 01:47:01;;;;;;;;;11.25;10.00;;;;;8.24;54.83;102316.66;5252028;27;64530;-77
2024/04/22 01:49:27;;;;;;;;;13.25;9.50;;;;;8.22;55.32;102314.13;5240489;27;68550;-71
2024/04/22 01:51:52;;;;;;;;;10.50;10.25;;;;;8.19;54.51;102310.91;5243049;27;44125;-71
2024/04/22 01:54:18;;;;;;;;;13.50;8.25;;;;;8.19;54.95;102310.91;5237127;27;62611;-71
2024/04/22 01:56:43;;;;;;;;;12.75;10.00;;;;;8.16;54.58;102306.72;5244336;27;64890;-71
2024/04/22 01:59:08;;;;;;;;;9.75;9.75;;;;;8.12;54.97;102300.00;5250070;27;62810;-70
2024/04/22 02:01:34;;;;;;;;;12.75;7.50;;;;;8.11;55.13;102296.56;5238710;27;44818;-71
2024/04/22 02:03:59;;;;;;;;;16.25;11.00;;;;;8.10;55.39;102296.66;5245015;26;52828;-71
2024/04/22 02:06:24;;;;;;;;;10.00;7.25;;;;;8.07;55.11;102295.13;5257530;26;63952;-72
2024/04/22 02:08:50;;;;;;;;;12.00;9.75;;;;;8.05;55.63;102290.94;5282496;26;66913;-71
2024/04/22 02:11:15;;;;;;;;;11.50;10.25;;;;;8.07;55.13;102294.28;5318352;26;70645;-70
2024/04/22 02:13:41;;;;;;;;;15.00;11.25;;;;;8.01;55.18;102283.28;5321774;26;43938;-71
2024/04/22 02:16:06;;;;;;;;;11.00;10.50;;;;;8.02;55.12;102282.31;5310052;26;64294;-71
2024/04/22 02:18:32;;;;;;;;;9.25;8.25;;;;;8.01;55.55;102285.91;5311390;26;68060;-70
2024/04/22 02:20:57;;;;;;;;;16.00;11.50;;;;;7.99;55.14;102287.84;5319038;26;59855;-71
2024/04/22 02:23:23;;;;;;;;;11.00;10.00;;;;;7.97;55.26;102281.84;5321678;26;64776;-71
2024/04/22 02:25:48;;;;;;;;;11.00;11.00;;;;;7.95;55.39;102281.16;5270581;26;44081;-71
2024/04/22 02:28:14;;;;;;;;;18.25;10.00;;;;;7.96;55.19;102279.38;5314913;26;44144;-71
2024/04/22 02:30:39;;;;;;;;;14.50;11.00;;;;;7.94;55.55;102281.25;5261832;26;70456;-71
2024/04/22 02:33:07;;;;;;;;;10.50;10.50;;;;;7.92;55.63;102280.56;5245246;27;67592;-70
2024/04/22 02:35:33;;;;;;;;;13.75;10.25;;;;;7.89;55.21;102279.03;5310054;26;44180;-71
2024/04/22 02:37:59;;;;;;;;;16.75;10.00;;;;;7.88;55.75;102285.28;5316819;26;44504;-70
2024/04/22 02:40:27;;;;;;;;;15.00;10.00;;;;;7.86;55.89;102282.75;5283370;26;66842;-71
2024/04/22 02:42:53;;;;;;;;;14.00;9.75;;;;;7.83;55.52;102288.28;5320144;26;43905;-71
2024/04/22 02:45:20;;;;;;;;;10.25;9.00;;;;;7.80;55.73;102290.38;5285010;26;44938;-71
2024/04/22 02:47:45;;;;;;;;;12.00;11.25;;;;;7.80;56.05;102295.66;5257396;26;43963;-71
2024/04/22 02:50:11;;;;;;;;;14.50;10.50;;;;;7.70;56.26;102287.63;5316317;26;71213;-71
2024/04/22 02:52:36;;;;;;;;;16.25;11.00;;;;;7.71;56.61;102294.59;5315753;26;63005;-71
2024/04/22 02:55:01;;;;;;;;;15.75;12.25;;;;;7.69;56.08;102293.88;5285657;26;63790;-71
2024/04/22 02:57:27;;;;;;;;;16.25;10.25;;;;;7.64;56.66;102291.63;5288705;26;54952;-71
2024/04/22 02:59:52;;;;;;;;;10.25;10.00;;;;;7.62;56.56;102290.94;5316691;26;44692;-71
2024/04/22 03:02:18;;;;;;;;;15.50;11.75;;;;;7.61;57.13;102299.81;5278676;26;68748;-71
2024/04/22 03:04:46;;;;;;;;;10.00;10.00;;;;;7.58;56.73;102307.97;5285289;26;45031;-70
2024/04/22 03:07:12;;;;;;;;;14.25;8.50;;;;;7.54;56.32;102302.09;5270410;26;44350;-72
2024/04/22 03:09:40;;;;;;;;;11.75;10.00;;;;;7.52;57.11;102308.47;5215364;27;71719;-71
2024/04/22 03:12:06;;;;;;;;;10.75;9.50;;;;;7.51;56.49;102309.44;5250467;27;44646;-71
2024/04/22 03:14:31;;;;;;;;;12.50;10.00;;;;;7.46;57.25;102301.03;5237308;27;44037;-70
2024/04/22 03:16:57;;;;;;;;;18.25;11.00;;;;;7.40;56.91;102303.22;5248544;27;67808;-71
2024/04/22 03:19:22;;;;;;;;;18.50;11.00;;;;;7.40;56.78;102292.66;5248674;27;70962;-70
2024/04/22 03:21:47;;;;;;;;;19.25;13.75;;;;;7.38;56.87;102297.22;5254788;27;66022;-71
2024/04/22 03:24:13;;;;;;;;;18.00;13.75;;;;;7.36;56.69;102291.25;5238157;27;64135;-70
2024/04/22 03:26:38;;;;;;;;;14.50;10.25;;;;;7.31;57.05;102279.41;5244723;27;44049;-71
2024/04/22 03:29:03;;;;;;;;;13.00;8.50;;;;;7.31;57.91;102288.16;5241326;27;71282;-71
2024/04/22 03:31:31;;;;;;;;;14.75;11.75;;;;;7.28;57.81;102283.13;5215571;27;43972;-71
2024/04/22 03:33:57;;;;;;;;;16.00;10.00;;;;;7.29;57.26;102292.72;5240561;27;44098;-72
2024/04/22 03:36:23;;;;;;;;;14.75;11.00;;;;;7.26;57.56;102291.19;5245401;27;44061;-71
2024/04/22 03:38:48;;;;;;;;;15.25;11.00;;;;;7.26;57.56;102295.59;5249668;27;69898;-70
2024/04/22 03:41:13;;;;;;;;;11.75;11.00;;;;;7.24;57.03;102302.78;5250488;27;44121;-71
2024/04/22 03:43:39;;;;;;;;;19.75;13.50;;;;;7.23;58.02;102298.47;5251920;27;63301;-71
2024/04/22 03:51:32;;;;;;;;;16.75;12.25;;;;;7.13;57.74;102293.09;5267948;27;43872;-70
2024/04/22 03:53:58;;;;;;;;;20.75;14.50;;;;;7.13;57.82;102298.38;5212215;27;66121;-70
2024/04/22 03:56:23;;;;;;;;;13.25;10.75;;;;;7.11;57.65;102297.66;5259656;26;66258;-71
2024/04/22 03:58:49;;;;;;;;;13.75;13.00;;;;;7.05;58.27;102298.16;5272632;26;49046;-72
2024/04/22 04:01:15;;;;;;;;;20.25;11.00;;;;;7.04;57.93;102307.03;5222851;27;45026;-71
2024/04/22 04:03:41;;;;;;;;;15.50;10.50;;;;;7.06;58.24;102313.88;5216251;27;44104;-71
2024/04/22 04:06:06;;;;;;;;;17.25;14.00;;;;;7.03;58.10;102300.06;5247795;26;44035;-71
2024/04/22 04:08:32;;;;;;;;;21.50;17.75;;;;;7.02;58.87;102304.53;5286235;26;67542;-70
2024/04/22 04:11:00;;;;;;;;;15.25;13.00;;;;;7.01;58.05;102302.84;5313337;26;68164;-70
2024/04/22 04:13:26;;;;;;;;;15.50;12.00;;;;;7.02;58.91;102308.94;5279892;26;44080;-71
2024/04/22 04:15:51;;;;;;;;;13.50;10.25;;;;;7.03;58.35;102313.25;5313009;26;44039;-71
2024/04/22 04:18:17;;;;;;;;;17.75;14.00;;;;;7.02;58.76;102315.06;5316050;26;70847;-71
2024/04/22 04:20:42;;;;;;;;;19.75;16.50;;;;;7.02;57.75;102307.16;5312223;26;44305;-71
2024/04/22 04:23:07;;;;;;;;;14.75;12.25;;;;;7.00;58.02;102307.28;5308608;26;44251;-72
2024/04/22 04:25:33;;;;;;;;;18.25;12.25;;;;;7.01;57.81;102308.13;5309738;26;61881;-71
2024/04/22 04:27:58;;;;;;;;;21.25;13.50;;;;;6.97;58.41;102302.25;5312216;26;44204;-72
2024/04/22 04:30:23;;;;;;;;;26.50;18.00;;;;;6.97;57.77;102302.25;5279017;26;67293;-72
2024/04/22 04:32:49;;;;;;;;;18.75;15.00;;;;;6.95;58.37;102309.44;5283095;26;61468;-71
2024/04/22 04:35:14;;;;;;;;;19.25;14.00;;;;;6.93;58.57;102311.34;5280277;26;43918;-71
2024/04/22 04:37:40;;;;;;;;;21.25;14.50;;;;;6.92;59.29;102307.03;5320043;26;71291;-72
2024/04/22 04:40:06;;;;;;;;;21.75;15.75;;;;;6.92;59.18;102306.22;5318197;26;50778;-71
2024/04/22 04:42:31;;;;;;;;;22.25;15.75;;;;;6.88;58.54;102305.63;5320036;26;44041;-71
2024/04/22 04:44:56;;;;;;;;;18.75;14.75;;;;;6.89;57.99;102312.56;5282229;26;62785;-71
2024/04/22 04:47:22;;;;;;;;;14.50;14.25;;;;;6.87;58.02;102305.75;5289613;26;46817;-72
2024/04/22 04:49:47;;;;;;;;;23.50;17.75;;;;;6.87;59.35;102311.84;5315211;26;44037;-70
2024/04/22 04:52:13;;;;;;;;;14.00;12.00;;;;;6.84;58.89;102307.66;5320963;26;65432;-71
2024/04/22 04:54:38;;;;;;;;;26.50;16.75;;;;;6.86;58.83;102315.44;5293109;26;44184;-71
2024/04/22 04:57:03;;;;;;;;;22.75;18.25;;;;;6.85;58.96;102322.53;5314181;26;63886;-73
2024/04/22 04:59:29;;;;;;;;;21.25;15.50;;;;;6.84;58.95;102317.38;5309060;26;46398;-71
2024/04/22 05:01:54;;;;;;;;;21.25;17.75;;;;;6.83;58.85;102326.22;5311900;26;57150;-71
2024/04/22 05:04:20;;;;;;;;;24.75;16.00;;;;;6.78;58.33;102321.31;5314687;26;44029;-71
2024/04/22 05:06:45;;;;;;;;;19.75;17.25;;;;;6.76;59.34;102319.75;5309361;26;65011;-73
2024/04/22 05:09:11;;;;;;;;;17.00;15.25;;;;;6.79;59.12;102316.88;5289125;26;44083;-71
2024/04/22 05:11:36;;;;;;;;;23.00;14.75;;;;;6.79;59.24;102325.63;5282886;26;46723;-71
2024/04/22 05:14:03;;;;;;;;;22.00;17.50;;;;;6.78;59.35;102325.75;5325782;26;44092;-71
2024/04/22 05:16:29;;;;;;;;;16.50;13.25;;;;;6.76;59.24;102314.50;5304480;26;48469;-72
2024/04/22 05:18:54;;;;;;;;;20.75;17.50;;;;;6.75;59.27;102321.53;5318029;26;65841;-71
2024/04/22 05:21:19;;;;;;;;;22.25;18.25;;;;;6.77;59.44;102318.81;5282843;26;44208;-72
2024/04/22 05:23:46;;;;;;;;;18.75;18.00;;;;;6.78;58.35;102323.13;5308324;26;61015;-74
2024/04/22 05:26:12;;;;;;;;;15.00;13.50;;;;;6.78;59.38;102317.84;5304720;26;44394;-71
2024/04/22 05:28:37;;;;;;;;;30.50;19.50;;;;;6.80;58.83;102318.56;5316893;26;44207;-71
2024/04/22 05:31:02;;;;;;;;;27.00;17.75;;;;;6.78;59.54;102313.41;5311729;26;63098;-72
2024/04/22 05:36:14;;;;;;;;;24.25;18.00;;;;;6.78;59.29;102304.66;5284275;26;44122;-72
2024/04/22 05:38:42;;;;;;;;;26.25;18.00;;;;;6.81;58.77;102317.59;5303821;26;44020;-71
2024/04/22 05:41:11;;;;;;;;;24.75;18.75;;;;;6.77;59.05;102314.34;5313969;26;43939;-73
2024/04/22 05:43:37;;;;;;;;;26.25;15.50;;;;;6.68;58.66;102304.53;5252522;26;44170;-72
2024/04/22 05:46:04;;;;;;;;;27.25;21.75;;;;;6.81;59.01;102320.25;5249542;26;45549;-72
2024/04/22 05:48:29;;;;;;;;;20.00;17.00;;;;;6.78;58.76;102323.13;5308467;26;44387;-71
2024/04/22 05:50:55;;;;;;;;;25.50;21.50;;;;;6.71;59.17;102314.84;5302502;26;44041;-71
2024/04/22 05:53:23;;;;;;;;;26.00;21.00;;;;;6.85;58.37;102340.13;5307539;26;56949;-71
2024/04/22 05:55:48;;;;;;;;;22.75;19.25;;;;;6.81;59.16;102331.59;5307452;26;70125;-71
2024/04/22 05:58:13;;;;;;;;;26.00;19.25;;;;;6.88;59.39;102341.72;5307719;26;61314;-71
2024/04/22 06:00:39;;;;;;;;;30.25;24.50;;;;;6.90;59.77;102345.06;5319094;26;61641;-72
2024/04/22 06:03:04;;;;;;;;;23.25;19.75;;;;;6.92;59.78;102343.13;5322289;26;62534;-72
2024/04/22 06:05:30;;;;;;;;;26.25;21.00;;;;;6.93;59.35;102353.56;5306551;26;62590;-72
2024/04/22 06:07:55;;;;;;;;;29.00;21.75;;;;;6.95;58.49;102353.44;5283289;26;44251;-72
2024/04/22 06:10:20;;;;;;;;;32.75;24.75;;;;;6.95;59.07;102348.16;5312554;26;44540;-73
2024/04/22 06:12:46;;;;;;;;;33.00;20.25;;;;;6.91;58.66;102344.91;5311308;26;65537;-72
2024/04/22 06:15:11;;;;;;;;;30.00;21.75;;;;;6.98;58.75;102351.38;5312089;26;59579;-72
2024/04/22 06:17:36;;;;;;;;;27.25;20.25;;;;;7.00;59.07;102351.28;5315221;26;64495;-72
2024/04/22 06:20:02;;;;;;;;;24.25;23.50;;;;;7.02;58.82;102349.34;5283531;26;61471;-72
2024/04/22 06:22:28;;;;;;;;;29.00;21.75;;;;;7.06;59.47;102347.31;5318792;26;44035;-72
2024/04/22 06:24:53;;;;;;;;;24.25;21.00;;;;;7.02;59.13;102332.69;5310432;26;44136;-73
2024/04/22 06:27:19;;;;;;;;;24.50;18.50;;;;;7.10;59.38;102341.69;5258070;26;60118;-72
2024/04/22 06:29:44;;;;;;;;;29.00;20.25;;;;;7.13;58.55;102341.44;5322341;26;44313;-72
2024/04/22 06:32:09;;;;;;;;;25.25;18.50;;;;;7.15;58.38;102336.00;5280911;26;51193;-73
2024/04/22 06:34:35;;;;;;;;;24.00;19.75;;;;;7.17;59.42;102335.91;5310896;26;59750;-72
2024/04/22 06:37:00;;;;;;;;;28.50;21.25;;;;;7.22;59.69;102345.16;5309610;26;61186;-71
2024/04/22 06:39:26;;;;;;;;;26.75;23.00;;;;;7.22;58.70;102333.75;5315103;26;66666;-72
2024/04/22 06:41:51;;;;;;;;;26.25;22.25;;;;;7.31;58.61;102346.19;5309762;26;43938;-73
2024/04/22 06:44:17;;;;;;;;;22.00;19.00;;;;;7.34;59.34;102337.22;5317212;26;66430;-72
2024/04/22 06:46:42;;;;;;;;;262.33;189.33;;;;;7.36;59.34;102330.00;5322218;26;67372;-72
2024/04/22 06:49:07;;;;;;;;;53.00;41.50;;;;;7.43;59.38;102334.63;5272082;26;61143;-73
2024/04/22 06:51:33;;;;;;;;;24.50;18.75;;;;;7.46;58.69;102335.34;5284402;26;64871;-72
2024/04/22 06:53:58;;;;;;;;;26.50;21.75;;;;;7.51;58.22;102334.03;5311120;26;69029;-75
2024/04/22 06:56:24;;;;;;;;;27.50;21.75;;;;;7.54;58.66;102338.22;5318278;26;66571;-71
2024/04/22 06:58:49;;;;;;;;;28.25;23.25;;;;;7.59;58.07;102338.69;5251968;26;43954;-71
2024/04/22 07:01:14;;;;;;;;;36.75;26.25;;;;;7.61;58.17;102343.84;5314862;26;67882;-71
2024/04/22 07:03:40;;;;;;;;;27.50;21.50;;;;;7.66;58.65;102349.56;5322635;26;71835;-71
2024/04/22 07:06:09;;;;;;;;;34.50;24.00;;;;;7.70;58.65;102351.00;5295410;26;67313;-71
2024/04/22 07:08:35;;;;;;;;;25.25;23.25;;;;;7.73;57.91;102353.38;5322710;26;44060;-71
2024/04/22 07:11:00;;;;;;;;;33.25;25.75;;;;;7.79;58.29;102357.34;5314317;26;45094;-72
2024/04/22 07:13:26;;;;;;;;;29.00;22.00;;;;;7.79;57.80;102347.59;5309269;26;57906;-72
2024/04/22 07:15:51;;;;;;;;;26.00;20.50;;;;;7.87;57.92;102345.16;5311340;26;67931;-72
2024/04/22 07:18:17;;;;;;;;;31.75;20.50;;;;;7.93;57.61;102348.25;5314874;26;43909;-72
2024/04/22 07:20:42;;;;;;;;;26.00;21.00;;;;;7.99;57.90;102339.84;5270572;26;44690;-71
2024/04/22 07:23:08;;;;;;;;;32.75;22.75;;;;;8.09;57.74;102331.97;5270425;26;66090;-72
2024/04/22 07:25:34;;;;;;;;;28.50;24.25;;;;;8.18;57.30;102341.75;5308598;26;44025;-71
2024/04/22 07:28:00;;;;;;;;;23.50;22.25;;;;;8.27;56.96;102337.53;5282114;26;44179;-71
2024/04/22 07:30:25;;;;;;;;;31.75;20.75;;;;;8.30;57.26;102326.69;5312545;26;44029;-71
2024/04/22 07:32:51;;;;;;;;;26.00;19.25;;;;;8.43;56.74;102327.31;5298748;26;47247;-71
2024/04/22 07:35:17;;;;;;;;;25.50;21.50;;;;;8.53;56.83;102331.84;5284979;26;44058;-72
2024/04/22 07:37:43;;;;;;;;;26.75;19.50;;;;;8.58;56.83;102335.78;5282203;26;44166;-70
2024/04/22 07:40:13;;;;;;;;;28.75;20.00;;;;;8.67;56.51;102334.13;5309699;26;44210;-71
2024/04/22 07:42:39;;;;;;;;;24.25;17.50;;;;;8.75;56.10;102325.53;5277790;26;44874;-73
2024/04/22 07:45:04;;;;;;;;;26.25;24.00;;;;;8.87;56.44;102326.28;5300629;26;44536;-77
2024/04/22 07:47:30;;;;;;;;;19.00;17.75;;;;;8.90;55.91;102318.91;5309811;26;44100;-74
2024/04/22 07:49:55;;;;;;;;;25.50;19.50;;;;;9.05;55.79;102326.47;5306695;26;44004;-81
2024/04/22 07:52:21;;;;;;;;;24.75;20.25;;;;;9.14;55.27;102330.97;5280165;26;69212;-84
2024/04/22 07:54:46;;;;;;;;;21.50;18.25;;;;;9.20;55.15;102321.63;5305347;26;43966;-78
2024/04/22 07:57:12;;;;;;;;;25.75;17.50;;;;;9.30;54.99;102330.44;5267639;26;44517;-75
2024/04/22 07:59:37;;;;;;;;;18.75;15.75;;;;;9.43;54.90;102330.19;5306968;26;44776;-76
2024/04/22 08:02:03;;;;;;;;;21.50;17.50;;;;;9.58;54.60;102327.13;5272599;26;44677;-75
2024/04/22 08:04:29;;;;;;;;;17.50;15.25;;;;;9.66;53.83;102332.56;5299290;26;44072;-73
2024/04/22 08:06:56;;;;;;;;;19.25;16.25;;;;;9.77;53.49;102336.88;5266260;26;44062;-77
2024/04/22 08:09:22;;;;;;;;;17.50;15.75;;;;;9.88;53.94;102327.97;5305638;26;44042;-73
2024/04/22 08:11:47;;;;;;;;;21.50;19.25;;;;;9.94;53.04;102313.31;5304625;26;44988;-74
2024/04/22 08:14:13;;;;;;;;;24.50;14.50;;;;;10.12;53.40;102324.84;5294844;26;44073;-74
2024/04/22 08:16:38;;;;;;;;;24.25;18.00;;;;;10.22;53.36;102316.88;5305345;26;60581;-74
2024/04/22 08:19:04;;;;;;;;;24.00;16.25;;;;;10.35;52.91;102319.22;5310619;26;67077;-74
2024/04/22 08:21:29;;;;;;;;;19.75;16.00;;;;;10.45;52.07;102320.06;5304777;26;44391;-85
2024/04/22 08:23:54;;;;;;;;;21.75;20.00;;;;;10.54;52.44;102323.63;5305413;26;43996;-76
2024/04/22 08:26:20;;;;;;;;;19.50;16.75;;;;;10.58;51.96;102321.53;5298410;26;60291;-77
2024/04/22 08:28:45;;;;;;;;;21.00;14.50;;;;;10.57;52.13;102318.03;5303289;26;47574;-78
2024/04/22 08:31:10;;;;;;;;;22.00;16.75;;;;;10.64;51.38;102320.97;5269551;26;46716;-76
2024/04/22 08:33:36;;;;;;;;;16.75;14.00;;;;;10.68;51.95;102318.88;5305578;26;67615;-79
2024/04/22 08:36:02;;;;;;;;;22.25;18.25;;;;;10.72;51.69;102323.72;5304061;26;62351;-80
2024/04/22 08:38:28;;;;;;;;;25.25;18.75;;;;;10.82;50.74;102315.72;5307700;26;44470;-76
2024/04/22 08:40:53;;;;;;;;;17.50;13.75;;;;;10.87;51.71;102326.72;5302650;26;50403;-82
2024/04/22 08:43:19;;;;;;;;;17.75;14.00;;;;;10.94;50.33;102327.81;5301049;26;43921;-79
2024/04/22 08:45:44;;;;;;;;;18.00;16.00;;;;;11.04;50.55;102326.91;5278286;26;44029;-84
2024/04/22 08:48:10;;;;;;;;;19.50;14.75;;;;;11.08;51.44;102326.47;5277986;26;44329;-76
2024/04/22 08:50:39;;;;;;;;;21.75;19.00;;;;;11.18;50.37;102322.94;5302375;26;44133;-87
2024/04/22 08:53:07;;;;;;;;;19.75;14.00;;;;;11.30;50.56;102319.06;5297293;26;44114;-87
2024/04/22 08:55:32;;;;;;;;;18.50;18.00;;;;;11.49;49.90;102325.22;5305560;26;44085;-74
2024/04/22 08:57:58;;;;;;;;;20.25;15.50;;;;;11.62;49.64;102317.69;5305780;26;44471;-77
2024/04/22 09:00:23;;;;;;;;;19.25;15.75;;;;;11.78;49.68;102330.28;5308351;26;71410;-74
2024/04/22 09:02:48;;;;;;;;;19.75;13.50;;;;;11.92;50.11;102315.63;5314425;26;65988;-75
2024/04/22 09:05:14;;;;;;;;;16.75;13.25;;;;;12.10;49.76;102320.09;5307134;26;62398;-75
2024/04/22 09:07:39;;;;;;;;;23.25;15.00;;;;;12.16;49.68;102323.97;5306128;26;60834;-74
2024/04/22 09:10:05;;;;;;;;;18.25;13.75;;;;;12.26;48.36;102319.38;5249605;26;69248;-77
2024/04/22 09:12:30;;;;;;;;;18.25;16.00;;;;;12.28;49.16;102306.75;5308603;26;44017;-75
2024/04/22 09:14:59;;;;;;;;;19.25;15.75;;;;;12.47;47.59;102316.31;5280374;26;44470;-83
2024/04/22 09:17:25;;;;;;;;;18.75;16.50;;;;;12.45;47.64;102318.31;5276394;26;44064;-75
2024/04/22 09:19:50;;;;;;;;;18.75;15.50;;;;;12.44;48.30;102316.63;5275092;26;44597;-74
2024/04/22 09:22:16;;;;;;;;;20.25;17.25;;;;;12.36;47.62;102297.97;5310663;26;67639;-74
2024/04/22 09:24:44;;;;;;;;;24.25;16.25;;;;;12.33;47.76;102312.44;5306440;26;51039;-76
2024/04/22 09:27:10;;;;;;;;;18.25;15.75;;;;;12.28;48.04;102309.44;5252751;26;44094;-74
2024/04/22 09:29:45;;;;;;;;;20.00;16.00;;;;;12.23;48.53;102317.03;5281714;26;46490;-74
2024/04/22 09:32:15;;;;;;;;;19.25;16.00;;;;;12.13;48.01;102311.81;5308590;26;44010;-74
2024/04/22 09:34:40;;;;;;;;;23.50;18.75;;;;;12.03;47.14;102303.13;5285558;26;44077;-73
2024/04/22 09:37:09;;;;;;;;;17.00;14.75;;;;;12.00;48.23;102306.91;5301490;26;46491;-74
2024/04/22 09:39:38;;;;;;;;;14.25;14.25;;;;;11.94;47.91;102299.53;5305418;26;44871;-76
2024/04/22 09:42:03;;;;;;;;;24.00;16.25;;;;;12.00;47.04;102298.06;5308326;26;44525;-74
2024/04/22 09:44:30;;;;;;;;;23.50;19.00;;;;;11.98;47.55;102295.56;5275480;26;44097;-73
2024/04/22 09:46:55;;;;;;;;;16.75;12.50;;;;;12.17;48.49;102285.75;5247410;26;44086;-75
2024/04/22 09:49:22;;;;;;;;;16.75;14.00;;;;;12.31;47.60;102295.81;5307436;26;70836;-74
2024/04/22 09:51:47;;;;;;;;;13.00;12.50;;;;;12.36;46.99;102282.03;5278346;26;44656;-82
2024/04/22 09:54:13;;;;;;;;;16.25;9.50;;;;;12.43;46.10;102293.69;5273443;26;50349;-75
2024/04/22 09:56:38;;;;;;;;;15.00;11.25;;;;;12.47;46.16;102287.06;5285181;26;46243;-76
2024/04/22 09:59:04;;;;;;;;;16.25;10.50;;;;;12.44;46.00;102274.09;5267240;26;44693;-74
2024/04/22 10:01:29;;;;;;;;;12.50;10.00;;;;;12.44;45.82;102275.91;5253275;26;44346;-74
2024/04/22 10:03:54;;;;;;;;;15.75;10.50;;;;;12.38;45.75;102266.75;5275056;26;44051;-74
2024/04/22 10:06:20;;;;;;;;;16.50;11.00;;;;;12.30;45.27;102266.69;5308664;26;56672;-83
2024/04/22 10:08:49;;;;;;;;;11.00;9.75;;;;;12.27;44.93;102275.84;5281294;26;45038;-76
2024/04/22 10:11:14;;;;;;;;;10.50;9.00;;;;;12.38;45.04;102264.94;5305423;26;44058;-76
2024/04/22 10:13:39;;;;;;;;;13.50;10.25;;;;;12.56;45.52;102256.03;5276700;26;44052;-76
2024/04/22 10:16:05;;;;;;;;;13.75;9.25;;;;;12.82;45.21;102263.94;5270884;26;66355;-73
2024/04/22 10:18:30;;;;;;;;;9.50;7.00;;;;;13.11;44.74;102259.16;5308708;26;44591;-73
2024/04/22 10:21:02;;;;;;;;;10.75;9.00;;;;;13.20;43.56;102252.00;5307190;26;44119;-73
2024/04/22 10:23:28;;;;;;;;;8.50;6.25;;;;;13.29;44.03;102253.72;5276337;26;45914;-74
2024/04/22 10:25:53;;;;;;;;;11.25;7.75;;;;;13.32;43.69;102253.38;5295279;26;44128;-74
2024/04/22 10:28:19;;;;;;;;;11.50;8.00;;;;;13.50;43.14;102255.06;5276409;26;44825;-73
2024/04/22 10:30:44;;;;;;;;;8.00;7.75;;;;;13.75;43.04;102249.72;5309813;26;44013;-74
2024/04/22 10:33:09;;;;;;;;;7.50;6.00;;;;;14.00;42.75;102235.34;5314659;26;43972;-75
2024/04/22 10:35:35;;;;;;;;;9.50;6.00;;;;;14.27;41.55;102245.75;5320162;26;44085;-74
2024/04/22 10:38:00;;;;;;;;;9.00;7.00;;;;;14.51;40.93;102249.34;5279757;26;70508;-77
2024/04/22 10:40:26;;;;;;;;;13.75;8.75;;;;;14.52;41.45;102251.00;5275856;26;44278;-74
2024/04/22 10:42:51;;;;;;;;;11.25;6.00;;;;;14.45;40.43;102242.88;5280151;26;44406;-74
2024/04/22 10:45:17;;;;;;;;;12.50;6.00;;;;;14.33;40.46;102234.41;5278894;26;44349;-74
2024/04/22 10:47:42;;;;;;;;;8.75;6.25;;;;;14.23;40.76;102231.09;5256733;26;44308;-73
2024/04/22 10:50:13;;;;;;;;;9.00;8.50;;;;;14.06;41.18;102238.34;5273532;26;43917;-73
2024/04/22 10:52:39;;;;;;;;;11.50;9.00;;;;;13.89;41.56;102234.88;5278704;26;56704;-75
2024/04/22 10:55:04;;;;;;;;;13.75;9.50;;;;;13.90;41.67;102232.03;5300886;26;53632;-78
2024/04/22 10:57:30;;;;;;;;;7.50;7.00;;;;;13.87;41.41;102228.88;5279106;26;44798;-75
2024/04/22 10:59:56;;;;;;;;;9.00;9.00;;;;;13.87;40.55;102237.69;5307537;26;62475;-73
2024/04/22 11:02:22;;;;;;;;;5.00;4.25;;;;;13.80;40.80;102229.56;5273303;26;44272;-72
2024/04/22 11:04:48;;;;;;;;;9.50;5.50;;;;;13.70;40.31;102234.25;5302763;26;66382;-74
2024/04/22 11:07:15;;;;;;;;;5.25;5.00;;;;;13.60;40.06;102233.56;5312713;26;44268;-75
2024/04/22 11:09:41;;;;;;;;;5.00;5.00;;;;;13.48;39.82;102225.91;5282021;26;44155;-76
2024/04/22 11:12:06;;;;;;;;;4.00;4.00;;;;;13.55;39.96;102228.75;5303051;26;58990;-76
2024/04/22 11:14:33;;;;;;;;;7.00;4.00;;;;;13.69;40.18;102211.25;5308841;26;48021;-73
2024/04/22 11:16:58;;;;;;;;;7.75;5.00;;;;;13.79;39.48;102227.06;5297624;26;45198;-74
2024/04/22 11:19:23;;;;;;;;;6.25;5.25;;;;;13.81;39.89;102225.91;5306121;26;58423;-78
2024/04/22 11:21:49;;;;;;;;;7.00;5.00;;;;;13.78;40.51;102212.06;5307574;26;44009;-78